Bay Point, New York
Current Conditions -  °F | °C
As of 7:53 PM on Tuesday 21 Oct 2014 (Local Time) from KFOK Reporting Station
Light Rain Light Rain  
Wind Chill: 59°   Ceiling: 7500
Heat Index: 59°   Visibility: 9mi
Dew Point: 56°   Wind: 6mph
Humidity: 90%   Direction: 110°ESE
Pressure: 29.89"   Gusts: NA
Location:  40.9692°N, 72.306°W
Report Text: KFOK 212353Z 11005KT 9SM -RA OVC075 15/13 A2989 RMK AO2 SLP121 P0007 60017 T01500133 10194 20150 50007
Loading
Personal Weather Stations






























Interactive Weather Map New forecast layout! Learn more

10-Day Weather Forecast

Advertisements
Track Severe Weather on mobile